createdAt,value
2022-10-01T00:01:14.412Z,9.10
2022-10-01T00:03:42.395Z,9.10
2022-10-01T00:06:13.457Z,9.00
2022-10-01T00:08:40.920Z,9.00
2022-10-01T00:11:28.101Z,9.00
2022-10-01T00:13:54.989Z,9.10
2022-10-01T00:16:25.301Z,9.10
2022-10-01T00:18:55.465Z,9.00
2022-10-01T00:21:28.110Z,9.00
2022-10-01T00:24:02.167Z,9.00
2022-10-01T00:26:32.425Z,9.00
2022-10-01T00:29:02.323Z,9.00
2022-10-01T00:31:30.160Z,9.00
2022-10-01T00:33:59.235Z,9.00
2022-10-01T00:36:27.138Z,9.00
2022-10-01T00:38:58.650Z,9.20
2022-10-01T00:41:26.827Z,9.00
2022-10-01T00:43:58.776Z,9.00
2022-10-01T00:46:45.117Z,9.00
2022-10-01T00:49:20.148Z,9.00
2022-10-01T00:51:55.344Z,9.00
2022-10-01T00:54:49.352Z,9.00
2022-10-01T00:57:18.884Z,9.00
2022-10-01T00:59:46.491Z,8.80
2022-10-01T01:02:13.362Z,8.90
2022-10-01T01:04:41.432Z,8.90
2022-10-01T01:07:08.981Z,9.00
2022-10-01T01:09:43.722Z,9.00
2022-10-01T01:12:34.617Z,9.10
2022-10-01T01:15:07.576Z,9.10
2022-10-01T01:17:38.123Z,9.20
2022-10-01T01:20:14.043Z,9.20
2022-10-01T01:22:50.745Z,9.20
2022-10-01T01:25:26.172Z,9.20
2022-10-01T01:28:11.740Z,9.30
2022-10-01T01:30:41.187Z,9.30
2022-10-01T01:33:14.617Z,9.40
2022-10-01T01:36:04.591Z,9.40
2022-10-01T01:38:38.789Z,9.40
2022-10-01T01:41:06.904Z,9.40
2022-10-01T01:43:37.804Z,9.40
2022-10-01T01:46:07.738Z,9.40
2022-10-01T01:48:38.232Z,9.40
2022-10-01T01:51:18.060Z,9.40
2022-10-01T01:53:45.074Z,9.40
2022-10-01T01:56:11.981Z,9.40
2022-10-01T01:58:39.250Z,9.30
2022-10-01T02:01:06.034Z,9.30
2022-10-01T02:03:34.816Z,9.30
2022-10-01T02:06:19.837Z,9.30
2022-10-01T02:08:58.639Z,9.30
2022-10-01T02:11:36.869Z,9.30
2022-10-01T02:14:28.643Z,9.20
2022-10-01T02:17:05.682Z,9.30
2022-10-01T02:19:52.046Z,9.20
2022-10-01T02:22:44.504Z,9.20
2022-10-01T02:25:13.673Z,9.20
2022-10-01T02:27:48.379Z,9.20
2022-10-01T02:30:15.311Z,9.20
2022-10-01T02:32:45.841Z,9.20
2022-10-01T02:35:16.621Z,9.20
2022-10-01T02:37:45.388Z,9.20
2022-10-01T02:40:16.225Z,9.20
2022-10-01T02:42:48.848Z,9.20
2022-10-01T02:45:22.675Z,9.20
2022-10-01T02:47:57.173Z,9.10
2022-10-01T02:50:29.562Z,9.20
2022-10-01T02:53:02.362Z,9.10
2022-10-01T02:55:33.596Z,9.10
2022-10-01T02:58:00.287Z,9.10
2022-10-01T03:00:27.175Z,9.10
2022-10-01T03:02:54.343Z,9.10
2022-10-01T03:05:21.930Z,9.10
2022-10-01T03:07:48.722Z,9.10
2022-10-01T03:10:16.636Z,9.10
2022-10-01T03:12:46.522Z,9.10
2022-10-01T03:15:14.979Z,9.10
2022-10-01T03:17:41.715Z,9.10
2022-10-01T03:20:08.943Z,9.10
2022-10-01T03:22:35.662Z,9.10
2022-10-01T03:25:02.598Z,9.10
2022-10-01T03:27:29.363Z,9.10
2022-10-01T03:29:56.104Z,9.10
2022-10-01T03:32:22.994Z,9.00
2022-10-01T03:34:49.750Z,9.00
2022-10-01T03:37:16.477Z,9.10
2022-10-01T03:39:43.211Z,9.10
2022-10-01T03:42:10.039Z,9.00
2022-10-01T03:44:36.766Z,9.10
2022-10-01T03:47:03.577Z,9.10
2022-10-01T03:49:30.273Z,9.10
2022-10-01T03:51:56.978Z,9.10
2022-10-01T03:54:23.743Z,9.10
2022-10-01T03:56:50.632Z,9.10
2022-10-01T03:59:17.475Z,9.20
2022-10-01T04:01:44.279Z,9.20
2022-10-01T04:04:11.053Z,9.20
2022-10-01T04:06:37.796Z,9.10
2022-10-01T04:09:04.827Z,9.20
2022-10-01T04:11:31.721Z,9.20
2022-10-01T04:13:58.826Z,9.20
2022-10-01T04:16:25.641Z,9.20
2022-10-01T04:18:52.476Z,9.20
2022-10-01T04:21:19.305Z,9.20
2022-10-01T04:23:46.222Z,9.20
2022-10-01T04:26:13.129Z,9.30
2022-10-01T04:28:39.835Z,9.20
2022-10-01T04:31:24.743Z,9.30
2022-10-01T04:33:53.807Z,9.30
2022-10-01T04:36:21.155Z,9.30
2022-10-01T04:38:51.166Z,9.40
2022-10-01T04:41:18.134Z,9.40
2022-10-01T04:43:44.920Z,9.40
2022-10-01T04:46:11.651Z,9.40
2022-10-01T04:48:38.392Z,9.40
2022-10-01T04:51:05.174Z,9.40
2022-10-01T04:53:32.281Z,9.40
2022-10-01T04:55:59.053Z,9.50
2022-10-01T04:58:26.846Z,9.50
2022-10-01T05:00:54.907Z,9.50
2022-10-01T05:03:23.205Z,9.60
2022-10-01T05:05:49.998Z,9.60
2022-10-01T05:08:16.714Z,9.60
2022-10-01T05:10:43.436Z,9.70
2022-10-01T05:13:11.085Z,9.70
2022-10-01T05:15:38.431Z,9.70
2022-10-01T05:18:05.183Z,9.70
2022-10-01T05:20:33.932Z,9.70
2022-10-01T05:23:00.736Z,9.70
2022-10-01T05:25:27.445Z,9.70
2022-10-01T05:28:04.967Z,9.70
2022-10-01T05:30:33.043Z,9.60
2022-10-01T05:33:02.007Z,9.60
2022-10-01T05:35:29.161Z,9.60
2022-10-01T05:37:57.493Z,9.60
2022-10-01T05:40:27.285Z,9.50
2022-10-01T05:42:56.088Z,9.50
2022-10-01T05:45:23.365Z,9.50
2022-10-01T05:47:59.991Z,9.50
2022-10-01T05:50:28.849Z,9.40
2022-10-01T05:52:55.905Z,9.40
2022-10-01T05:55:23.700Z,9.40
2022-10-01T05:57:58.303Z,9.40
2022-10-01T06:00:28.009Z,9.30
2022-10-01T06:02:58.598Z,9.30
2022-10-01T06:05:25.757Z,9.30
2022-10-01T06:07:53.461Z,9.30
2022-10-01T06:10:21.758Z,9.20
2022-10-01T06:12:48.877Z,9.20
2022-10-01T06:15:16.885Z,9.20
2022-10-01T06:17:45.256Z,9.20
2022-10-01T06:20:17.413Z,9.20
2022-10-01T06:22:44.935Z,9.20
2022-10-01T06:25:14.966Z,9.10
2022-10-01T06:27:41.992Z,9.10
2022-10-01T06:30:09.279Z,9.10
2022-10-01T06:32:36.365Z,9.10
2022-10-01T06:35:04.237Z,9.10
2022-10-01T06:37:30.932Z,9.10
2022-10-01T06:39:57.680Z,9.10
2022-10-01T06:42:24.532Z,9.10
2022-10-01T06:44:51.234Z,9.10
2022-10-01T06:47:17.935Z,9.00
2022-10-01T06:49:47.507Z,9.10
2022-10-01T06:52:33.517Z,9.10
2022-10-01T06:55:01.378Z,9.00
2022-10-01T06:57:28.984Z,9.00
2022-10-01T06:59:55.854Z,9.00
2022-10-01T07:02:30.329Z,9.10
2022-10-01T07:05:00.588Z,9.10
2022-10-01T07:07:31.044Z,9.10
2022-10-01T07:09:59.052Z,9.10
2022-10-01T07:12:25.851Z,9.10
2022-10-01T07:14:53.145Z,9.10
2022-10-01T07:17:20.630Z,9.10
2022-10-01T07:19:47.404Z,9.10
2022-10-01T07:22:14.204Z,9.10
2022-10-01T07:24:40.909Z,9.10
2022-10-01T07:27:07.749Z,9.10
2022-10-01T07:29:34.637Z,9.10
2022-10-01T07:32:02.076Z,9.10
2022-10-01T07:34:31.083Z,9.10
2022-10-01T07:36:57.924Z,9.10
2022-10-01T07:39:24.660Z,9.10
2022-10-01T07:41:51.848Z,9.10
2022-10-01T07:44:19.611Z,9.10
2022-10-01T07:46:47.152Z,9.10
2022-10-01T07:49:14.520Z,9.10
2022-10-01T07:51:43.862Z,9.10
2022-10-01T07:54:11.056Z,9.10
2022-10-01T07:56:38.177Z,9.10
2022-10-01T07:59:05.118Z,9.10
2022-10-01T08:01:33.060Z,9.20
2022-10-01T08:04:00.258Z,9.20
2022-10-01T08:06:27.018Z,9.20
2022-10-01T08:08:53.676Z,9.20
2022-10-01T08:11:20.625Z,9.20
2022-10-01T08:13:47.447Z,9.20
2022-10-01T08:16:14.495Z,9.20
2022-10-01T08:18:41.281Z,9.20
2022-10-01T08:21:08.801Z,9.20
2022-10-01T08:23:36.317Z,9.30
2022-10-01T08:26:08.265Z,9.30
2022-10-01T08:28:35.612Z,9.30
2022-10-01T08:31:09.961Z,9.40
2022-10-01T08:33:38.414Z,9.40
2022-10-01T08:36:09.138Z,9.40
2022-10-01T08:38:36.784Z,9.40
2022-10-01T08:41:23.025Z,9.40
2022-10-01T08:43:51.628Z,9.50
2022-10-01T08:46:22.253Z,9.40
2022-10-01T08:49:04.043Z,9.50
2022-10-01T08:52:01.103Z,9.50
2022-10-01T08:54:47.610Z,9.50
2022-10-01T08:57:19.928Z,9.50
2022-10-01T08:59:50.788Z,9.50
2022-10-01T09:02:19.100Z,9.50
2022-10-01T09:04:48.192Z,9.50
2022-10-01T09:07:41.965Z,9.40
2022-10-01T09:10:42.083Z,9.40
2022-10-01T09:13:27.463Z,9.40
2022-10-01T09:16:09.027Z,9.40
2022-10-01T09:19:13.305Z,9.30
2022-10-01T09:22:03.215Z,9.40
2022-10-01T09:24:38.318Z,9.40
2022-10-01T09:27:15.975Z,9.30
2022-10-01T09:29:56.440Z,9.30
2022-10-01T09:32:25.843Z,9.30
2022-10-01T09:34:54.327Z,9.30
2022-10-01T09:37:26.857Z,9.30
2022-10-01T09:40:20.107Z,9.30
2022-10-01T09:42:48.018Z,9.30
2022-10-01T09:45:16.999Z,9.30
2022-10-01T09:47:48.317Z,9.30
2022-10-01T09:50:20.273Z,9.30
2022-10-01T09:52:49.985Z,9.30
2022-10-01T09:55:34.081Z,9.40
2022-10-01T09:58:22.967Z,9.40
2022-10-01T10:00:51.658Z,9.40
2022-10-01T10:03:30.745Z,9.40
2022-10-01T10:06:02.357Z,9.40
2022-10-01T10:08:40.538Z,9.50
2022-10-01T10:11:10.683Z,9.50
2022-10-01T10:13:40.960Z,9.50
2022-10-01T10:16:35.291Z,9.50
2022-10-01T10:19:05.217Z,9.60
2022-10-01T10:21:37.728Z,9.60
2022-10-01T10:24:21.385Z,9.70
2022-10-01T10:26:54.723Z,9.70
2022-10-01T10:29:32.999Z,9.80
2022-10-01T10:32:04.701Z,9.80
2022-10-01T10:34:38.251Z,9.80
2022-10-01T10:37:11.958Z,9.80
2022-10-01T10:39:41.879Z,9.90
2022-10-01T10:42:14.264Z,9.90
2022-10-01T10:44:43.859Z,10.00
2022-10-01T10:47:14.677Z,10.00
2022-10-01T10:49:47.486Z,10.00
2022-10-01T10:52:36.145Z,10.10
2022-10-01T10:55:21.311Z,10.10
2022-10-01T10:57:48.268Z,10.20
2022-10-01T11:00:20.960Z,10.20
2022-10-01T11:03:04.240Z,10.20
2022-10-01T11:05:33.268Z,10.20
2022-10-01T11:08:03.503Z,10.20
2022-10-01T11:10:51.685Z,10.30
2022-10-01T11:13:39.295Z,10.20
2022-10-01T11:16:17.918Z,10.20
2022-10-01T11:19:05.767Z,10.20
2022-10-01T11:22:03.763Z,10.20
2022-10-01T11:25:00.877Z,10.30
2022-10-01T11:27:43.664Z,10.30
2022-10-01T11:30:21.609Z,10.30
2022-10-01T11:33:07.065Z,10.30
2022-10-01T11:35:44.121Z,10.30
2022-10-01T11:38:31.950Z,10.30
2022-10-01T11:41:13.753Z,10.40
2022-10-01T11:44:01.586Z,10.50
2022-10-01T11:46:31.152Z,10.50
2022-10-01T11:49:10.679Z,10.60
2022-10-01T11:51:46.508Z,10.60
2022-10-01T11:54:18.734Z,10.70
2022-10-01T11:57:12.649Z,10.80
2022-10-01T11:59:53.320Z,10.80
2022-10-01T12:02:34.807Z,10.90
2022-10-01T12:05:15.144Z,10.90
2022-10-01T12:08:16.812Z,11.00
2022-10-01T12:11:01.062Z,11.00
2022-10-01T12:13:40.222Z,11.00
2022-10-01T12:16:15.927Z,11.00
2022-10-01T12:18:55.547Z,11.10
2022-10-01T12:21:39.409Z,11.10
2022-10-01T12:24:13.750Z,11.10
2022-10-01T12:27:03.771Z,11.20
2022-10-01T12:29:55.188Z,11.20
2022-10-01T12:32:33.819Z,11.20
2022-10-01T12:35:25.807Z,11.30
2022-10-01T12:38:23.125Z,11.40
2022-10-01T12:41:04.341Z,11.40
2022-10-01T12:43:53.981Z,11.40
2022-10-01T12:46:33.757Z,11.40
2022-10-01T12:49:12.900Z,11.40
2022-10-01T12:51:52.942Z,11.50
2022-10-01T12:54:31.483Z,11.60
2022-10-01T12:57:00.965Z,11.70
2022-10-01T12:59:46.459Z,11.90
2022-10-01T13:02:22.658Z,12.10
2022-10-01T13:05:11.280Z,12.20
2022-10-01T13:08:12.110Z,12.40
2022-10-01T13:10:57.724Z,12.60
2022-10-01T13:13:35.565Z,12.70
2022-10-01T13:16:17.141Z,12.90
2022-10-01T13:19:03.166Z,12.90
2022-10-01T13:21:48.079Z,13.00
2022-10-01T13:24:34.804Z,13.20
2022-10-01T13:27:04.398Z,13.30
2022-10-01T13:29:49.698Z,13.40
2022-10-01T13:32:28.434Z,13.50
2022-10-01T13:34:56.721Z,13.50
2022-10-01T13:37:39.293Z,13.50
2022-10-01T13:40:29.499Z,13.40
2022-10-01T13:43:16.549Z,13.40
2022-10-01T13:45:48.880Z,13.40
2022-10-01T13:48:24.781Z,13.40
2022-10-01T13:50:59.016Z,13.50
2022-10-01T13:53:27.468Z,13.50
2022-10-01T13:55:56.726Z,13.60
2022-10-01T13:58:29.513Z,13.60
2022-10-01T14:00:59.154Z,13.80
2022-10-01T14:03:55.913Z,13.90
2022-10-01T14:06:51.792Z,14.00
2022-10-01T14:09:28.252Z,14.10
2022-10-01T14:12:23.959Z,14.20
2022-10-01T14:15:16.053Z,14.20
2022-10-01T14:17:49.935Z,14.30
2022-10-01T14:20:20.531Z,14.30
2022-10-01T14:22:53.084Z,14.30
2022-10-01T14:25:35.442Z,14.40
2022-10-01T14:28:17.280Z,14.50
2022-10-01T14:31:07.379Z,14.60
2022-10-01T14:33:37.063Z,14.60
2022-10-01T14:36:14.450Z,14.80
2022-10-01T14:38:41.342Z,14.80
2022-10-01T14:41:33.454Z,14.90
2022-10-01T14:44:00.842Z,15.00
2022-10-01T14:46:27.789Z,15.00
2022-10-01T14:49:00.934Z,15.10
2022-10-01T14:51:30.720Z,15.10
2022-10-01T14:54:00.164Z,15.00
2022-10-01T14:56:28.355Z,14.90
2022-10-01T14:59:05.446Z,14.90
2022-10-01T15:01:32.177Z,14.80
2022-10-01T15:03:59.021Z,14.70
2022-10-01T15:06:29.661Z,14.60
2022-10-01T15:09:11.788Z,14.50
2022-10-01T15:11:44.208Z,14.40
2022-10-01T15:14:19.721Z,14.30
2022-10-01T15:16:46.738Z,14.10
2022-10-01T15:19:17.057Z,13.90
2022-10-01T15:22:00.737Z,13.70
2022-10-01T15:24:37.266Z,13.60
2022-10-01T15:27:04.654Z,13.40
2022-10-01T15:29:31.867Z,13.20
2022-10-01T15:31:59.296Z,13.00
2022-10-01T15:34:27.545Z,12.90
2022-10-01T15:36:55.382Z,12.80
2022-10-01T15:39:27.930Z,12.70
2022-10-01T15:41:55.004Z,12.70
2022-10-01T15:44:38.536Z,12.60
2022-10-01T15:47:45.536Z,12.60
2022-10-01T15:50:12.235Z,12.70
2022-10-01T15:52:51.301Z,12.70
2022-10-01T15:55:23.744Z,12.80
2022-10-01T15:58:03.215Z,12.80
2022-10-01T16:00:40.676Z,12.80
2022-10-01T16:03:19.691Z,12.80
2022-10-01T16:05:48.203Z,12.70
2022-10-01T16:08:21.847Z,12.70
2022-10-01T16:11:11.687Z,12.70
2022-10-01T16:13:41.091Z,12.70
2022-10-01T16:16:10.727Z,12.60
2022-10-01T16:18:37.586Z,12.60
2022-10-01T16:21:06.154Z,12.60
2022-10-01T16:23:42.835Z,12.60
2022-10-01T16:26:32.244Z,12.60
2022-10-01T16:29:14.614Z,12.60
2022-10-01T16:31:44.541Z,12.60
2022-10-01T16:34:16.778Z,12.50
2022-10-01T16:36:44.529Z,12.50
2022-10-01T16:39:13.727Z,12.50
2022-10-01T16:41:42.390Z,12.50
2022-10-01T16:44:13.124Z,12.40
2022-10-01T16:46:41.053Z,12.40
2022-10-01T16:49:15.658Z,12.40
2022-10-01T16:51:43.001Z,12.40
2022-10-01T16:54:24.810Z,12.40
2022-10-01T16:56:52.734Z,12.30
2022-10-01T16:59:22.339Z,12.30
2022-10-01T17:01:51.395Z,12.30
2022-10-01T17:04:18.682Z,12.20
2022-10-01T17:06:45.912Z,12.20
2022-10-01T17:09:12.707Z,12.20
2022-10-01T17:11:40.095Z,12.20
2022-10-01T17:14:08.762Z,12.10
2022-10-01T17:16:35.989Z,12.00
2022-10-01T17:19:03.325Z,12.00
2022-10-01T17:21:30.965Z,11.80
2022-10-01T17:23:57.813Z,11.70
2022-10-01T17:26:25.220Z,11.60
2022-10-01T17:28:52.115Z,11.60
2022-10-01T17:31:19.157Z,11.60
2022-10-01T17:33:46.032Z,11.50
2022-10-01T17:36:13.895Z,11.50
2022-10-01T17:38:40.603Z,11.50
2022-10-01T17:41:07.982Z,11.50
2022-10-01T17:43:36.790Z,11.50
2022-10-01T17:46:03.766Z,11.50
2022-10-01T17:48:30.736Z,11.50
2022-10-01T17:51:06.118Z,11.40
2022-10-01T17:53:39.867Z,11.40
2022-10-01T17:56:15.264Z,11.40
2022-10-01T17:58:45.382Z,11.40
2022-10-01T18:01:15.777Z,11.30
2022-10-01T18:03:42.653Z,11.20
2022-10-01T18:06:13.472Z,11.20
2022-10-01T18:08:54.724Z,11.20
2022-10-01T18:11:24.103Z,11.20
2022-10-01T18:13:51.031Z,11.20
2022-10-01T18:16:19.454Z,11.20
2022-10-01T18:21:33.722Z,11.20
2022-10-01T18:24:04.434Z,11.20
2022-10-01T18:26:32.319Z,11.20
2022-10-01T18:28:59.427Z,11.30
2022-10-01T18:31:29.106Z,11.20
2022-10-01T18:33:58.945Z,11.20
2022-10-01T18:36:33.601Z,11.20
2022-10-01T18:39:15.209Z,11.20
2022-10-01T18:41:42.754Z,11.20
2022-10-01T18:44:19.930Z,11.20
2022-10-01T18:46:50.407Z,11.20
2022-10-01T18:49:17.119Z,11.20
2022-10-01T18:52:05.350Z,11.20
2022-10-01T18:54:47.180Z,11.20
2022-10-01T18:57:23.049Z,11.20
2022-10-01T18:59:49.876Z,11.20
2022-10-01T19:02:49.466Z,11.20
2022-10-01T19:05:53.769Z,11.30
2022-10-01T19:08:57.547Z,11.20
2022-10-01T19:11:27.426Z,11.20
2022-10-01T19:14:30.880Z,11.20
2022-10-01T19:17:17.920Z,11.20
2022-10-01T19:20:00.045Z,11.20
2022-10-01T19:22:26.701Z,11.10
2022-10-01T19:25:04.336Z,11.10
2022-10-01T19:27:44.042Z,11.10
2022-10-01T19:30:14.398Z,11.10
2022-10-01T19:33:01.389Z,11.10
2022-10-01T19:35:33.600Z,11.10
2022-10-01T19:38:09.851Z,11.10
2022-10-01T19:40:41.670Z,11.00
2022-10-01T19:43:39.518Z,11.00
2022-10-01T19:46:20.452Z,11.00
2022-10-01T19:48:56.969Z,11.00
2022-10-01T19:51:30.575Z,11.00
2022-10-01T19:54:00.939Z,11.00
2022-10-01T19:56:30.199Z,11.00
2022-10-01T19:59:23.243Z,11.00
2022-10-01T20:02:12.704Z,11.00
2022-10-01T20:05:00.775Z,11.00
2022-10-01T20:07:46.116Z,11.00
2022-10-01T20:10:20.809Z,11.00
2022-10-01T20:12:52.893Z,10.90
2022-10-01T20:15:20.097Z,11.00
2022-10-01T20:17:58.527Z,11.00
2022-10-01T20:20:46.420Z,11.00
2022-10-01T20:23:41.593Z,11.00
2022-10-01T20:26:29.790Z,11.00
2022-10-01T20:29:16.742Z,11.10
2022-10-01T20:32:17.382Z,11.10
2022-10-01T20:34:55.287Z,11.10
2022-10-01T20:37:55.520Z,11.10
2022-10-01T20:40:37.239Z,11.10
2022-10-01T20:43:44.409Z,11.10
2022-10-01T20:46:38.038Z,11.10
2022-10-01T20:49:18.215Z,11.10
2022-10-01T20:52:17.424Z,11.10
2022-10-01T20:54:47.642Z,11.10
2022-10-01T20:57:41.675Z,11.10
2022-10-01T21:00:18.866Z,11.10
2022-10-01T21:03:13.015Z,11.10
2022-10-01T21:05:44.170Z,11.10
2022-10-01T21:08:35.469Z,11.10
2022-10-01T21:11:07.488Z,11.00
2022-10-01T21:13:47.895Z,11.00
2022-10-01T21:16:23.233Z,11.00
2022-10-01T21:19:17.155Z,11.00
2022-10-01T21:22:10.462Z,11.00
2022-10-01T21:24:40.229Z,10.90
2022-10-01T21:27:30.495Z,11.00
2022-10-01T21:30:11.428Z,11.00
2022-10-01T21:33:14.779Z,11.00
2022-10-01T21:35:49.234Z,10.90
2022-10-01T21:38:31.646Z,10.90
2022-10-01T21:41:01.211Z,10.90
2022-10-01T21:43:41.009Z,10.90
2022-10-01T21:46:22.719Z,10.90
2022-10-01T21:48:55.533Z,10.90
2022-10-01T21:51:37.393Z,10.90
2022-10-01T21:54:45.923Z,10.90
2022-10-01T21:57:16.673Z,10.90
2022-10-01T21:59:52.284Z,10.80
2022-10-01T22:02:28.005Z,10.90
2022-10-01T22:05:03.197Z,10.90
2022-10-01T22:07:46.940Z,10.80
2022-10-01T22:10:21.002Z,10.80
2022-10-01T22:12:50.355Z,10.80
2022-10-01T22:15:52.454Z,10.80
2022-10-01T22:18:41.108Z,10.80
2022-10-01T22:21:42.625Z,10.80
2022-10-01T22:24:17.560Z,10.70
2022-10-01T22:26:54.504Z,10.80
2022-10-01T22:29:25.254Z,10.80
2022-10-01T22:31:58.110Z,10.70
2022-10-01T22:34:32.324Z,10.70
2022-10-01T22:37:04.887Z,10.70
2022-10-01T22:39:38.987Z,10.70
2022-10-01T22:42:26.884Z,10.80
2022-10-01T22:44:53.782Z,10.70
2022-10-01T22:47:57.822Z,10.70
2022-10-01T22:50:46.885Z,10.70
2022-10-01T22:53:16.667Z,10.70
2022-10-01T22:55:55.208Z,10.70
2022-10-01T22:58:43.043Z,10.70
2022-10-01T23:01:24.802Z,10.70
2022-10-01T23:04:21.573Z,10.70
2022-10-01T23:07:35.931Z,10.70
2022-10-01T23:10:20.443Z,10.70
2022-10-01T23:13:05.311Z,10.70
2022-10-01T23:15:41.474Z,10.70
2022-10-01T23:18:21.993Z,10.70
2022-10-01T23:20:57.162Z,10.70
2022-10-01T23:23:31.015Z,10.70
2022-10-01T23:26:32.492Z,10.70
2022-10-01T23:29:37.692Z,10.60
2022-10-01T23:32:31.265Z,10.60
2022-10-01T23:35:20.777Z,10.60
2022-10-01T23:38:21.536Z,10.60
2022-10-01T23:40:51.844Z,10.60
2022-10-01T23:43:48.111Z,10.60
2022-10-01T23:46:21.541Z,10.60
2022-10-01T23:48:52.540Z,10.60
2022-10-01T23:51:23.009Z,10.60
2022-10-01T23:53:56.420Z,10.60
2022-10-01T23:56:50.809Z,10.60
2022-10-01T23:59:35.528Z,10.60
